Time;durP1;ratioP1;P1;durP2;ratioP2;P2;SDS_P1;SDS_P2;PMS_P1;PMS_P2;Temp;Humidity;BMP_temperature;BMP_pressure;BME280_temperature;BME280_humidity;BME280_pressure;Samples;Min_cycle;Max_cycle;Signal;HPM_P1;HPM_P2
2022/01/17 00:00:20;;;;;;;83.03;40.75;;;;;;;;;;5054276;28;20386;-70
2022/01/17 00:02:48;;;;;;;86.93;40.53;;;;;;;;;;5054216;28;20064;-72
2022/01/17 00:05:15;;;;;;;64.65;31.92;;;;;;;;;;5053772;28;20033;-68
2022/01/17 00:07:41;;;;;;;46.78;26.50;;;;;;;;;;5053548;28;20472;-63
2022/01/17 00:10:07;;;;;;;65.07;33.75;;;;;;;;;;5053390;28;20025;-65
2022/01/17 00:12:36;;;;;;;56.47;30.65;;;;;;;;;;5053368;28;20040;-65
2022/01/17 00:15:11;;;;;;;58.90;31.17;;;;;;;;;;5053481;28;20456;-65
2022/01/17 00:17:40;;;;;;;63.47;33.35;;;;;;;;;;5052745;28;20033;-65
2022/01/17 00:20:11;;;;;;;63.38;33.45;;;;;;;;;;5053398;28;20087;-65
2022/01/17 00:22:39;;;;;;;70.63;35.08;;;;;;;;;;5051576;28;20131;-64
2022/01/17 00:25:08;;;;;;;66.00;34.25;;;;;;;;;;5052434;28;20028;-65
2022/01/17 00:27:35;;;;;;;66.00;35.60;;;;;;;;;;5052770;28;20029;-64
2022/01/17 00:30:03;;;;;;;72.65;35.08;;;;;;;;;;5052578;28;20036;-65
2022/01/17 00:32:30;;;;;;;75.93;39.30;;;;;;;;;;5051353;28;20472;-63
2022/01/17 00:34:57;;;;;;;72.40;38.53;;;;;;;;;;5051644;28;20124;-68
2022/01/17 00:37:23;;;;;;;72.80;35.58;;;;;;;;;;5052867;28;20122;-65
2022/01/17 00:39:49;;;;;;;73.30;36.92;;;;;;;;;;5052651;28;20080;-64
2022/01/17 00:42:14;;;;;;;96.70;45.42;;;;;;;;;;5036737;28;20452;-63
2022/01/17 00:44:40;;;;;;;101.70;50.33;;;;;;;;;;5032649;28;20027;-64
2022/01/17 00:47:06;;;;;;;99.43;47.63;;;;;;;;;;5032426;28;20026;-64
2022/01/17 00:49:32;;;;;;;97.63;47.20;;;;;;;;;;5034179;28;20381;-64
2022/01/17 00:51:58;;;;;;;93.68;46.75;;;;;;;;;;5033108;28;20051;-64
2022/01/17 00:54:23;;;;;;;88.22;44.05;;;;;;;;;;5033069;28;20030;-64
2022/01/17 00:56:49;;;;;;;96.53;45.00;;;;;;;;;;5032093;28;20336;-69
2022/01/17 00:59:15;;;;;;;96.22;44.53;;;;;;;;;;5032794;28;20558;-65
2022/01/17 01:01:41;;;;;;;102.13;43.53;;;;;;;;;;5047360;28;20061;-63
2022/01/17 01:04:07;;;;;;;82.20;39.90;;;;;;;;;;5052722;28;20728;-63
2022/01/17 01:06:36;;;;;;;71.80;34.28;;;;;;;;;;5052178;28;20041;-64
2022/01/17 01:09:03;;;;;;;67.38;32.88;;;;;;;;;;5052023;28;20033;-64
2022/01/17 01:11:29;;;;;;;54.70;27.75;;;;;;;;;;5051771;28;20033;-65
2022/01/17 01:13:55;;;;;;;57.85;27.60;;;;;;;;;;5052264;28;20077;-63
2022/01/17 01:16:32;;;;;;;53.80;25.98;;;;;;;;;;5053194;28;20115;-63
2022/01/17 01:29:55;;;;;;;48.92;23.92;;;;;;;;;;5032395;28;20095;-71
2022/01/17 01:32:25;;;;;;;43.05;23.75;;;;;;;;;;5031932;28;20044;-68
2022/01/17 01:34:54;;;;;;;40.13;21.33;;;;;;;;;;5031881;28;20045;-71
2022/01/17 01:37:20;;;;;;;44.05;24.35;;;;;;;;;;5031762;28;20392;-64
2022/01/17 01:39:49;;;;;;;39.25;21.35;;;;;;;;;;5032087;28;20030;-68
2022/01/17 01:42:18;;;;;;;38.28;20.92;;;;;;;;;;5033323;28;20057;-64
2022/01/17 01:44:45;;;;;;;34.78;19.38;;;;;;;;;;5032995;28;20038;-66
2022/01/17 01:47:12;;;;;;;32.58;18.73;;;;;;;;;;5031679;28;20029;-68
2022/01/17 01:49:38;;;;;;;31.92;18.80;;;;;;;;;;5032960;28;20045;-63
2022/01/17 01:52:04;;;;;;;32.75;17.02;;;;;;;;;;5032911;28;20528;-64
2022/01/17 01:54:30;;;;;;;41.08;18.70;;;;;;;;;;5032823;28;20025;-64
2022/01/17 01:56:57;;;;;;;30.73;16.98;;;;;;;;;;5032661;28;20094;-64
2022/01/17 01:59:24;;;;;;;27.65;15.40;;;;;;;;;;5032484;28;20544;-63
2022/01/17 02:01:51;;;;;;;26.95;14.82;;;;;;;;;;5034681;28;20480;-65
2022/01/17 02:04:17;;;;;;;31.00;15.27;;;;;;;;;;5041986;28;20078;-63
2022/01/17 02:06:43;;;;;;;28.02;16.15;;;;;;;;;;5030367;28;20041;-69
2022/01/17 02:09:09;;;;;;;27.88;15.77;;;;;;;;;;5032350;28;20493;-64
2022/01/17 02:11:36;;;;;;;27.40;15.52;;;;;;;;;;5032316;28;20033;-63
2022/01/17 02:14:03;;;;;;;29.20;16.20;;;;;;;;;;5032540;28;20543;-63
2022/01/17 02:16:28;;;;;;;30.75;16.67;;;;;;;;;;5032379;28;20025;-63
2022/01/17 02:18:54;;;;;;;27.90;15.90;;;;;;;;;;5032575;28;20047;-65
2022/01/17 02:21:33;;;;;;;27.70;14.35;;;;;;;;;;5032679;28;20026;-66
2022/01/17 02:24:00;;;;;;;31.77;15.20;;;;;;;;;;5032284;28;20357;-63
2022/01/17 02:26:27;;;;;;;26.20;14.43;;;;;;;;;;5032358;28;20041;-64
2022/01/17 02:28:55;;;;;;;26.88;16.05;;;;;;;;;;5031022;28;20033;-64
2022/01/17 02:31:22;;;;;;;28.80;16.52;;;;;;;;;;5031809;28;20022;-64
2022/01/17 02:33:50;;;;;;;25.42;15.30;;;;;;;;;;5031265;28;20052;-63
2022/01/17 02:36:16;;;;;;;25.40;14.90;;;;;;;;;;5031467;28;20088;-64
2022/01/17 02:38:42;;;;;;;34.97;17.35;;;;;;;;;;5031155;28;20022;-64
2022/01/17 02:41:08;;;;;;;33.55;16.60;;;;;;;;;;5031210;28;20044;-64
2022/01/17 02:43:35;;;;;;;34.10;17.40;;;;;;;;;;5030793;28;20049;-64
2022/01/17 02:48:34;;;;;;;31.50;15.05;;;;;;;;;;5030179;28;20037;-65
2022/01/17 02:51:01;;;;;;;26.15;15.23;;;;;;;;;;5030031;28;20073;-65
2022/01/17 02:53:28;;;;;;;23.90;13.05;;;;;;;;;;5031170;28;20029;-63
2022/01/17 02:55:57;;;;;;;24.67;13.23;;;;;;;;;;5031646;28;20396;-64
2022/01/17 02:58:25;;;;;;;34.58;19.25;;;;;;;;;;5031042;28;20025;-64
2022/01/17 03:00:52;;;;;;;41.85;22.88;;;;;;;;;;5031381;28;20034;-62
2022/01/17 03:03:24;;;;;;;38.03;19.33;;;;;;;;;;5031517;28;20041;-64
2022/01/17 03:05:50;;;;;;;29.85;16.95;;;;;;;;;;5030973;28;20445;-63
2022/01/17 03:08:16;;;;;;;28.88;15.55;;;;;;;;;;5029793;28;20092;-64
2022/01/17 03:10:50;;;;;;;25.40;14.30;;;;;;;;;;5031657;28;20057;-63
2022/01/17 03:13:19;;;;;;;29.35;14.88;;;;;;;;;;5029941;28;20500;-64
2022/01/17 03:15:54;;;;;;;26.60;15.40;;;;;;;;;;5031777;28;20025;-63
2022/01/17 03:18:20;;;;;;;26.45;15.98;;;;;;;;;;5031852;28;20482;-66
2022/01/17 03:20:46;;;;;;;30.25;16.33;;;;;;;;;;5033571;28;20083;-65
2022/01/17 03:23:11;;;;;;;29.45;16.67;;;;;;;;;;5036157;28;20487;-70
2022/01/17 03:25:37;;;;;;;31.35;14.93;;;;;;;;;;5035302;28;20029;-69
2022/01/17 03:28:04;;;;;;;26.75;15.45;;;;;;;;;;5035210;28;20468;-72
2022/01/17 03:30:33;;;;;;;24.02;14.68;;;;;;;;;;5034736;28;20152;-68
2022/01/17 03:33:01;;;;;;;25.05;13.75;;;;;;;;;;5034982;28;20034;-65
2022/01/17 03:35:27;;;;;;;25.50;14.27;;;;;;;;;;5035097;28;20033;-66
2022/01/17 03:37:53;;;;;;;22.75;12.82;;;;;;;;;;5035558;28;20463;-64
2022/01/17 03:40:18;;;;;;;25.73;14.27;;;;;;;;;;5033852;28;20032;-63
2022/01/17 03:42:44;;;;;;;23.15;14.32;;;;;;;;;;5035244;28;20495;-65
2022/01/17 03:45:11;;;;;;;30.90;15.57;;;;;;;;;;5036164;28;20025;-65
2022/01/17 03:47:42;;;;;;;32.22;18.17;;;;;;;;;;5035164;28;20040;-63
2022/01/17 03:50:12;;;;;;;34.58;20.23;;;;;;;;;;5036182;28;20030;-64
2022/01/17 03:52:41;;;;;;;35.75;19.95;;;;;;;;;;5036002;28;20495;-63
2022/01/17 03:55:16;;;;;;;39.83;19.40;;;;;;;;;;5035608;28;20071;-64
2022/01/17 03:57:45;;;;;;;32.05;17.25;;;;;;;;;;5035541;28;20558;-65
2022/01/17 04:00:24;;;;;;;29.58;16.60;;;;;;;;;;5036615;28;20060;-63
2022/01/17 04:02:51;;;;;;;31.80;17.23;;;;;;;;;;5035385;28;20117;-64
2022/01/17 04:05:18;;;;;;;36.72;18.38;;;;;;;;;;5035573;28;20097;-64
2022/01/17 04:07:44;;;;;;;43.75;19.40;;;;;;;;;;5034543;28;20029;-64
2022/01/17 04:10:12;;;;;;;42.40;17.48;;;;;;;;;;5035286;28;20021;-64
2022/01/17 04:12:39;;;;;;;30.08;16.23;;;;;;;;;;5033773;28;20117;-63
2022/01/17 04:15:06;;;;;;;33.42;15.65;;;;;;;;;;5033606;28;20488;-63
2022/01/17 04:17:32;;;;;;;34.60;17.13;;;;;;;;;;5034859;28;20034;-63
2022/01/17 04:20:05;;;;;;;44.30;16.73;;;;;;;;;;5035325;28;20022;-64
2022/01/17 04:22:35;;;;;;;36.28;16.30;;;;;;;;;;5035671;28;20412;-64
2022/01/17 04:25:02;;;;;;;33.05;16.67;;;;;;;;;;5035197;28;20037;-63
2022/01/17 04:27:28;;;;;;;35.15;17.88;;;;;;;;;;5036426;28;20072;-64
2022/01/17 04:29:53;;;;;;;37.03;18.70;;;;;;;;;;5035136;28;20057;-64
2022/01/17 04:32:19;;;;;;;44.60;21.75;;;;;;;;;;5032963;28;20434;-63
2022/01/17 04:34:45;;;;;;;44.15;21.55;;;;;;;;;;5032395;28;20445;-63
2022/01/17 04:37:11;;;;;;;35.97;19.48;;;;;;;;;;5051361;28;20083;-63
2022/01/17 04:39:37;;;;;;;40.90;19.85;;;;;;;;;;5054276;28;20120;-63
2022/01/17 04:42:10;;;;;;;43.65;21.55;;;;;;;;;;5054704;28;20017;-63
2022/01/17 04:47:21;;;;;;;38.47;20.95;;;;;;;;;;5054307;28;20033;-63
2022/01/17 04:49:47;;;;;;;44.13;22.25;;;;;;;;;;5052003;28;20163;-64
2022/01/17 04:52:14;;;;;;;46.97;20.80;;;;;;;;;;5038927;28;20053;-64
2022/01/17 04:54:42;;;;;;;48.90;21.02;;;;;;;;;;5034036;28;20025;-63
2022/01/17 04:57:10;;;;;;;35.58;19.58;;;;;;;;;;5034171;28;20029;-64
2022/01/17 04:59:36;;;;;;;40.92;19.20;;;;;;;;;;5034607;28;20029;-62
2022/01/17 05:02:03;;;;;;;49.35;19.42;;;;;;;;;;5035007;28;20038;-64
2022/01/17 05:04:29;;;;;;;39.28;18.73;;;;;;;;;;5031958;28;20348;-64
2022/01/17 05:06:54;;;;;;;46.83;19.13;;;;;;;;;;5033816;28;20116;-64
2022/01/17 05:09:20;;;;;;;46.05;18.40;;;;;;;;;;5033849;28;20029;-63
2022/01/17 05:11:46;;;;;;;42.30;18.63;;;;;;;;;;5033835;28;20116;-63
2022/01/17 05:14:12;;;;;;;31.80;17.13;;;;;;;;;;5033565;28;20498;-63
2022/01/17 05:16:45;;;;;;;29.92;16.67;;;;;;;;;;5037162;28;20037;-62
2022/01/17 05:21:55;;;;;;;29.50;16.02;;;;;;;;;;5033850;28;20048;-71
2022/01/17 05:24:21;;;;;;;31.65;16.38;;;;;;;;;;5047256;28;20021;-68
2022/01/17 05:26:47;;;;;;;35.50;16.60;;;;;;;;;;5050893;28;20088;-66
2022/01/17 05:29:13;;;;;;;32.95;15.63;;;;;;;;;;5047701;28;20024;-67
2022/01/17 05:31:39;;;;;;;29.92;14.70;;;;;;;;;;5051290;28;20037;-67
2022/01/17 05:34:05;;;;;;;34.25;15.95;;;;;;;;;;5048666;28;20090;-69
2022/01/17 05:36:31;;;;;;;33.65;16.90;;;;;;;;;;5047156;28;20559;-72
2022/01/17 05:38:56;;;;;;;35.15;16.10;;;;;;;;;;5052999;28;20033;-69
2022/01/17 05:41:22;;;;;;;30.90;15.40;;;;;;;;;;5053367;28;20072;-66
2022/01/17 05:43:48;;;;;;;28.40;13.95;;;;;;;;;;5052808;28;20120;-66
2022/01/17 05:46:14;;;;;;;40.72;16.02;;;;;;;;;;5052682;28;20497;-70
2022/01/17 05:48:40;;;;;;;36.17;16.73;;;;;;;;;;5052862;28;20021;-75
2022/01/17 05:51:06;;;;;;;38.15;18.60;;;;;;;;;;5052692;28;20033;-70
2022/01/17 05:53:32;;;;;;;57.75;24.02;;;;;;;;;;5052178;28;20369;-66
2022/01/17 05:55:58;;;;;;;42.63;18.75;;;;;;;;;;5052773;28;20052;-67
2022/01/17 05:58:24;;;;;;;39.25;19.83;;;;;;;;;;5051629;28;20452;-71
2022/01/17 06:00:50;;;;;;;41.88;20.15;;;;;;;;;;5051822;28;20060;-68
2022/01/17 06:03:15;;;;;;;42.83;21.73;;;;;;;;;;5053067;28;20021;-73
2022/01/17 06:05:41;;;;;;;42.20;20.85;;;;;;;;;;5053425;28;20435;-74
2022/01/17 06:08:07;;;;;;;52.85;23.02;;;;;;;;;;5052995;28;20020;-68
2022/01/17 06:10:34;;;;;;;47.15;19.30;;;;;;;;;;5052930;28;20112;-75
2022/01/17 06:13:01;;;;;;;46.38;22.23;;;;;;;;;;5050116;28;20031;-73
2022/01/17 06:15:27;;;;;;;42.45;21.38;;;;;;;;;;5052459;28;20033;-72
2022/01/17 06:17:53;;;;;;;45.83;20.88;;;;;;;;;;5052387;28;20032;-75
2022/01/17 06:20:19;;;;;;;40.65;20.85;;;;;;;;;;5052210;28;20083;-72
2022/01/17 06:22:45;;;;;;;42.08;20.45;;;;;;;;;;5052096;28;20418;-76
2022/01/17 06:25:11;;;;;;;36.67;19.48;;;;;;;;;;5052493;28;20048;-70
2022/01/17 06:27:37;;;;;;;43.65;19.35;;;;;;;;;;5041976;28;20022;-75
2022/01/17 06:30:05;;;;;;;35.25;19.25;;;;;;;;;;5049408;28;20114;-74
2022/01/17 06:32:31;;;;;;;46.90;19.95;;;;;;;;;;5036325;28;20037;-69
2022/01/17 06:34:57;;;;;;;43.33;19.38;;;;;;;;;;5031965;28;20041;-73
2022/01/17 06:37:25;;;;;;;32.78;17.55;;;;;;;;;;5049698;28;20095;-71
2022/01/17 06:39:52;;;;;;;37.55;18.98;;;;;;;;;;5039777;28;20116;-69
2022/01/17 06:42:18;;;;;;;34.17;18.33;;;;;;;;;;5051873;28;20120;-73
2022/01/17 06:44:43;;;;;;;42.78;18.90;;;;;;;;;;5051957;28;20040;-72
2022/01/17 06:47:09;;;;;;;36.08;17.40;;;;;;;;;;5050563;28;20100;-68
2022/01/17 06:49:35;;;;;;;38.53;18.20;;;;;;;;;;5030269;28;20029;-70
2022/01/17 06:52:01;;;;;;;36.28;18.27;;;;;;;;;;5047209;28;20033;-69
2022/01/17 06:54:27;;;;;;;33.95;17.35;;;;;;;;;;5051082;28;20041;-72
2022/01/17 06:56:53;;;;;;;39.83;21.45;;;;;;;;;;5051128;28;20017;-70
2022/01/17 06:59:18;;;;;;;32.65;17.60;;;;;;;;;;5051504;28;20037;-70
2022/01/17 07:01:44;;;;;;;29.10;16.25;;;;;;;;;;5051427;28;20460;-70
2022/01/17 07:04:10;;;;;;;27.98;17.17;;;;;;;;;;5051650;28;20033;-70
2022/01/17 07:06:38;;;;;;;30.38;16.35;;;;;;;;;;5050593;28;20025;-70
2022/01/17 07:09:16;;;;;;;30.70;15.20;;;;;;;;;;5051058;28;20018;-71
2022/01/17 07:11:43;;;;;;;24.85;13.68;;;;;;;;;;5051625;28;20037;-71
2022/01/17 07:14:10;;;;;;;24.38;13.88;;;;;;;;;;5050646;28;20494;-71
2022/01/17 07:16:38;;;;;;;26.02;13.80;;;;;;;;;;5049911;28;20028;-71
2022/01/17 07:19:04;;;;;;;34.50;13.98;;;;;;;;;;5049926;28;20139;-76
2022/01/17 07:21:31;;;;;;;30.20;14.75;;;;;;;;;;5051994;28;20122;-74
2022/01/17 07:23:56;;;;;;;25.70;15.07;;;;;;;;;;5051845;28;20029;-74
2022/01/17 07:26:22;;;;;;;26.05;15.68;;;;;;;;;;5051528;28;20040;-75
2022/01/17 07:28:48;;;;;;;24.13;14.30;;;;;;;;;;5051510;28;20028;-77
2022/01/17 07:31:16;;;;;;;25.50;14.82;;;;;;;;;;5051826;28;20033;-73
2022/01/17 07:33:42;;;;;;;29.98;17.42;;;;;;;;;;5051323;28;20053;-76
2022/01/17 07:36:08;;;;;;;31.92;17.80;;;;;;;;;;5051165;28;20096;-72
2022/01/17 07:38:35;;;;;;;27.10;15.48;;;;;;;;;;5051238;28;20029;-74
2022/01/17 07:41:02;;;;;;;24.52;13.95;;;;;;;;;;5050594;28;20060;-71
2022/01/17 07:43:28;;;;;;;27.80;15.27;;;;;;;;;;5051512;28;20025;-73
2022/01/17 07:46:47;;;;;;;25.35;15.05;;;;;;;;;;5051471;28;20040;-70
2022/01/17 07:48:58;;;;;;;25.65;14.68;;;;;;;;;;5050572;28;20428;-75
2022/01/17 07:51:26;;;;;;;21.58;13.32;;;;;;;;;;5051277;28;20033;-68
2022/01/17 07:53:53;;;;;;;27.58;14.27;;;;;;;;;;5051127;28;20021;-73
2022/01/17 07:56:19;;;;;;;24.77;14.13;;;;;;;;;;5039665;28;20033;-70
2022/01/17 07:58:45;;;;;;;29.58;15.85;;;;;;;;;;5044085;28;20052;-71
2022/01/17 08:01:11;;;;;;;27.70;15.65;;;;;;;;;;5050997;28;20029;-68
2022/01/17 08:03:37;;;;;;;25.60;15.55;;;;;;;;;;5051038;28;20025;-69
2022/01/17 08:06:03;;;;;;;22.48;14.25;;;;;;;;;;5034725;28;20411;-70
2022/01/17 08:08:29;;;;;;;29.45;14.90;;;;;;;;;;5035238;28;20025;-70
2022/01/17 08:10:54;;;;;;;25.00;15.43;;;;;;;;;;5036349;28;20037;-71
2022/01/17 08:13:20;;;;;;;25.90;14.52;;;;;;;;;;5034782;28;20076;-69
2022/01/17 08:15:47;;;;;;;26.15;15.20;;;;;;;;;;5043188;28;20052;-75
2022/01/17 08:18:13;;;;;;;26.75;15.35;;;;;;;;;;5053755;28;20024;-71
2022/01/17 08:20:40;;;;;;;27.92;16.33;;;;;;;;;;5048284;28;20025;-69
2022/01/17 08:23:06;;;;;;;33.70;16.45;;;;;;;;;;5044655;28;20025;-74
2022/01/17 08:25:32;;;;;;;28.42;16.65;;;;;;;;;;5034838;28;20045;-73
2022/01/17 08:27:58;;;;;;;29.25;17.48;;;;;;;;;;5034278;28;20021;-72
2022/01/17 08:30:24;;;;;;;32.22;17.70;;;;;;;;;;5034299;28;20033;-68
2022/01/17 08:32:50;;;;;;;33.08;17.23;;;;;;;;;;5037450;28;20032;-74
2022/01/17 08:35:20;;;;;;;29.85;17.30;;;;;;;;;;5053116;28;20059;-69
2022/01/17 08:37:45;;;;;;;27.00;14.95;;;;;;;;;;5052425;28;20052;-76
2022/01/17 08:40:12;;;;;;;23.40;14.88;;;;;;;;;;5054072;28;20025;-70
2022/01/17 08:42:38;;;;;;;23.30;14.40;;;;;;;;;;5054442;28;20025;-75
2022/01/17 08:45:07;;;;;;;19.40;12.52;;;;;;;;;;5054430;28;20481;-70
2022/01/17 08:47:33;;;;;;;29.15;12.25;;;;;;;;;;5053758;28;20028;-73
2022/01/17 08:49:59;;;;;;;21.08;12.35;;;;;;;;;;5064242;28;20379;-74
2022/01/17 08:52:25;;;;;;;16.80;11.02;;;;;;;;;;5072647;28;20620;-74
2022/01/17 08:54:51;;;;;;;17.00;11.13;;;;;;;;;;5073439;28;20032;-72
2022/01/17 08:57:19;;;;;;;21.40;11.80;;;;;;;;;;5072487;28;20063;-70
2022/01/17 08:59:46;;;;;;;23.42;10.80;;;;;;;;;;5074233;28;20048;-71
2022/01/17 09:02:12;;;;;;;17.02;10.55;;;;;;;;;;5074203;28;20383;-68
2022/01/17 09:04:40;;;;;;;19.92;11.32;;;;;;;;;;5074410;28;20032;-70
2022/01/17 09:07:11;;;;;;;17.17;10.93;;;;;;;;;;5072792;28;20025;-70
2022/01/17 09:09:38;;;;;;;23.77;12.38;;;;;;;;;;5073719;28;20562;-70
2022/01/17 09:12:06;;;;;;;20.60;12.50;;;;;;;;;;5074176;28;20107;-70
2022/01/17 09:14:31;;;;;;;22.13;12.80;;;;;;;;;;5073820;28;20487;-68
2022/01/17 09:16:57;;;;;;;22.85;12.63;;;;;;;;;;5073691;28;20044;-72
2022/01/17 09:19:23;;;;;;;22.33;13.02;;;;;;;;;;5050193;28;20090;-68
2022/01/17 09:21:49;;;;;;;22.33;13.18;;;;;;;;;;5053583;28;20021;-75
2022/01/17 09:24:15;;;;;;;22.42;14.10;;;;;;;;;;5053505;28;20421;-70
2022/01/17 09:26:41;;;;;;;20.73;13.93;;;;;;;;;;5053283;28;20035;-69
2022/01/17 09:29:06;;;;;;;25.30;14.10;;;;;;;;;;5051324;28;20100;-72
2022/01/17 09:31:32;;;;;;;25.42;15.77;;;;;;;;;;5052579;28;20028;-70
2022/01/17 09:33:58;;;;;;;23.38;13.48;;;;;;;;;;5052869;28;20488;-75
2022/01/17 09:36:25;;;;;;;22.73;14.43;;;;;;;;;;5053207;28;20033;-76
2022/01/17 09:38:52;;;;;;;24.13;14.85;;;;;;;;;;5053183;28;20047;-70
2022/01/17 09:41:18;;;;;;;23.20;14.20;;;;;;;;;;5052743;28;20476;-69
2022/01/17 09:43:44;;;;;;;21.17;13.10;;;;;;;;;;5053149;28;20079;-72
2022/01/17 09:46:10;;;;;;;24.05;14.85;;;;;;;;;;5053143;28;20032;-72
2022/01/17 09:48:39;;;;;;;24.52;15.65;;;;;;;;;;5052808;28;20159;-70
2022/01/17 09:51:19;;;;;;;24.52;15.02;;;;;;;;;;5052993;28;20025;-69
2022/01/17 09:53:45;;;;;;;27.58;14.93;;;;;;;;;;5052379;28;20033;-72
2022/01/17 09:56:12;;;;;;;24.55;14.65;;;;;;;;;;5052786;28;20029;-68
2022/01/17 09:58:40;;;;;;;25.65;14.98;;;;;;;;;;5052560;28;20472;-68
2022/01/17 10:01:07;;;;;;;24.13;15.13;;;;;;;;;;5052372;28;20029;-70
2022/01/17 10:03:33;;;;;;;25.30;15.90;;;;;;;;;;5052077;28;20076;-69
2022/01/17 10:05:59;;;;;;;26.98;15.93;;;;;;;;;;5045076;28;20411;-71
2022/01/17 10:08:26;;;;;;;25.58;15.18;;;;;;;;;;5052109;28;20080;-70
2022/01/17 10:10:57;;;;;;;24.88;14.45;;;;;;;;;;5042890;28;20412;-69
2022/01/17 10:13:26;;;;;;;27.58;16.20;;;;;;;;;;5032209;28;20033;-69
2022/01/17 10:16:06;;;;;;;24.42;15.13;;;;;;;;;;5049791;28;20029;-70
2022/01/17 10:18:49;;;;;;;26.17;16.52;;;;;;;;;;5052257;28;20061;-72
2022/01/17 10:21:43;;;;;;;25.33;15.95;;;;;;;;;;5051756;28;20484;-71
2022/01/17 10:35:37;;;;;;;30.52;17.95;;;;;;;;;;5051944;28;20048;-73
2022/01/17 10:38:11;;;;;;;31.02;17.20;;;;;;;;;;5050843;28;20051;-72
2022/01/17 10:40:49;;;;;;;32.15;17.25;;;;;;;;;;5031842;28;20029;-73
2022/01/17 10:43:38;;;;;;;31.10;18.52;;;;;;;;;;5032529;28;20117;-71
2022/01/17 10:46:10;;;;;;;31.52;18.45;;;;;;;;;;5041648;28;20033;-71
2022/01/17 10:48:47;;;;;;;35.38;19.67;;;;;;;;;;5044063;28;20032;-73
2022/01/17 10:51:14;;;;;;;30.27;18.05;;;;;;;;;;5034298;28;20045;-71
2022/01/17 10:53:41;;;;;;;32.15;18.50;;;;;;;;;;5034749;28;20025;-71
2022/01/17 10:56:12;;;;;;;33.13;19.23;;;;;;;;;;5040543;28;20113;-71
2022/01/17 10:58:39;;;;;;;39.00;19.58;;;;;;;;;;5030868;28;20036;-70
2022/01/17 11:01:11;;;;;;;30.45;17.63;;;;;;;;;;5031448;28;20077;-71
2022/01/17 11:03:39;;;;;;;31.92;16.27;;;;;;;;;;5031461;28;20034;-71
2022/01/17 11:06:09;;;;;;;24.20;15.02;;;;;;;;;;5031487;28;20104;-72
2022/01/17 11:08:39;;;;;;;28.48;15.57;;;;;;;;;;5042097;28;20485;-73
2022/01/17 11:11:08;;;;;;;28.35;14.70;;;;;;;;;;5030606;28;20025;-73
2022/01/17 11:13:38;;;;;;;25.17;15.98;;;;;;;;;;5031272;28;20034;-72
2022/01/17 11:16:11;;;;;;;24.27;13.77;;;;;;;;;;5031335;28;20053;-71
2022/01/17 11:18:41;;;;;;;20.45;12.73;;;;;;;;;;5039266;28;20025;-70
2022/01/17 11:21:14;;;;;;;19.73;11.95;;;;;;;;;;5034013;28;20115;-71
2022/01/17 11:23:45;;;;;;;19.58;13.13;;;;;;;;;;5033375;28;20056;-74
2022/01/17 11:26:11;;;;;;;22.23;13.55;;;;;;;;;;5027047;28;20041;-73
2022/01/17 11:28:39;;;;;;;20.35;13.13;;;;;;;;;;5042025;28;20498;-78
2022/01/17 11:31:13;;;;;;;20.13;12.15;;;;;;;;;;5040831;28;20053;-74
2022/01/17 11:33:39;;;;;;;17.58;10.07;;;;;;;;;;5033264;28;20045;-72
2022/01/17 11:36:06;;;;;;;18.92;10.88;;;;;;;;;;5031034;28;20041;-72
2022/01/17 11:38:46;;;;;;;19.73;10.70;;;;;;;;;;5011957;28;20029;-71
2022/01/17 11:41:29;;;;;;;23.70;11.68;;;;;;;;;;5031367;28;20388;-71
2022/01/17 11:43:58;;;;;;;24.15;11.88;;;;;;;;;;5034057;28;20447;-71
2022/01/17 11:46:29;;;;;;;22.50;12.55;;;;;;;;;;5035494;28;20117;-72
2022/01/17 11:49:02;;;;;;;26.63;13.88;;;;;;;;;;5036263;28;20132;-71
2022/01/17 11:51:45;;;;;;;23.42;13.40;;;;;;;;;;5036677;28;20045;-72
2022/01/17 11:54:23;;;;;;;28.40;16.10;;;;;;;;;;5036313;28;20034;-71
2022/01/17 11:56:54;;;;;;;21.92;13.45;;;;;;;;;;5035091;28;20033;-71
2022/01/17 11:59:24;;;;;;;22.10;12.02;;;;;;;;;;5035684;28;20108;-72
2022/01/17 12:02:28;;;;;;;19.83;12.68;;;;;;;;;;5035479;28;20044;-71
2022/01/17 12:05:06;;;;;;;23.48;13.55;;;;;;;;;;5035077;28;20037;-71
2022/01/17 12:07:55;;;;;;;30.10;15.07;;;;;;;;;;5033962;28;20068;-71
2022/01/17 12:10:24;;;;;;;23.60;13.18;;;;;;;;;;5035415;28;20030;-70
2022/01/17 12:13:12;;;;;;;23.20;15.05;;;;;;;;;;5035593;28;20044;-71
2022/01/17 12:15:58;;;;;;;27.13;16.45;;;;;;;;;;5035242;28;20065;-73
2022/01/17 12:18:32;;;;;;;27.83;14.90;;;;;;;;;;5035277;28;20048;-71
2022/01/17 12:21:43;;;;;;;26.85;15.48;;;;;;;;;;5035053;28;20038;-72
2022/01/17 12:24:15;;;;;;;21.88;14.13;;;;;;;;;;5032601;28;20056;-73
2022/01/17 12:26:42;;;;;;;22.52;14.00;;;;;;;;;;5034761;28;20464;-72
2022/01/17 12:29:08;;;;;;;22.13;13.70;;;;;;;;;;5033573;28;20029;-71
2022/01/17 12:31:44;;;;;;;25.83;14.32;;;;;;;;;;5040995;28;20040;-70
2022/01/17 12:34:20;;;;;;;27.38;14.98;;;;;;;;;;5040759;28;20053;-71
2022/01/17 12:36:47;;;;;;;26.48;14.90;;;;;;;;;;5056954;28;20085;-69
2022/01/17 12:39:19;;;;;;;27.92;14.45;;;;;;;;;;5054748;28;20040;-70
2022/01/17 12:41:48;;;;;;;29.10;15.30;;;;;;;;;;5050238;28;20091;-69
2022/01/17 12:44:25;;;;;;;23.80;15.32;;;;;;;;;;5053536;28;20276;-70
2022/01/17 12:46:54;;;;;;;22.77;14.70;;;;;;;;;;5054785;28;20041;-73
2022/01/17 12:49:21;;;;;;;22.75;14.40;;;;;;;;;;5053901;28;20036;-71
2022/01/17 12:51:52;;;;;;;24.88;14.30;;;;;;;;;;5053163;28;20029;-70
2022/01/17 12:54:20;;;;;;;24.00;14.82;;;;;;;;;;5052752;28;20425;-70
2022/01/17 12:56:48;;;;;;;24.10;14.18;;;;;;;;;;5052965;28;20027;-70
2022/01/17 12:59:17;;;;;;;24.55;14.05;;;;;;;;;;5053578;28;20033;-75
2022/01/17 13:01:45;;;;;;;23.52;14.05;;;;;;;;;;5053387;28;20475;-73
2022/01/17 13:04:12;;;;;;;20.98;13.68;;;;;;;;;;5053479;28;20036;-72
2022/01/17 13:06:40;;;;;;;25.63;12.88;;;;;;;;;;5052657;28;20021;-70
2022/01/17 13:09:21;;;;;;;24.00;14.25;;;;;;;;;;5052679;28;20036;-73
2022/01/17 13:11:49;;;;;;;23.70;14.88;;;;;;;;;;5052705;28;20064;-70
2022/01/17 13:14:16;;;;;;;25.65;14.70;;;;;;;;;;5053343;28;20025;-71
2022/01/17 13:16:43;;;;;;;24.70;14.05;;;;;;;;;;5052836;28;20044;-71
2022/01/17 13:19:14;;;;;;;25.25;13.88;;;;;;;;;;5052770;28;20064;-70
2022/01/17 13:21:42;;;;;;;24.60;14.05;;;;;;;;;;5053173;28;20033;-70
2022/01/17 13:26:47;;;;;;;25.85;15.32;;;;;;;;;;5053001;28;20036;-69
2022/01/17 13:29:14;;;;;;;25.90;14.60;;;;;;;;;;5052745;28;20103;-72
2022/01/17 13:32:09;;;;;;;;;;;;;;;;;;;;;
2022/01/17 13:34:38;;;;;;;33.70;15.02;;;;;;;;;;5052383;28;20049;-70
2022/01/17 13:37:06;;;;;;;25.92;15.18;;;;;;;;;;5052486;28;20076;-70
2022/01/17 13:39:32;;;;;;;23.10;14.43;;;;;;;;;;5049048;28;20049;-70
2022/01/17 13:41:59;;;;;;;22.85;14.10;;;;;;;;;;5052344;28;20056;-71
2022/01/17 13:44:27;;;;;;;29.10;14.43;;;;;;;;;;5052341;28;20060;-70
2022/01/17 13:46:57;;;;;;;21.27;13.48;;;;;;;;;;5051247;28;20064;-74
2022/01/17 13:49:25;;;;;;;30.83;15.85;;;;;;;;;;5052432;28;20037;-72
2022/01/17 13:51:51;;;;;;;25.55;14.90;;;;;;;;;;5051893;28;20464;-71
2022/01/17 13:54:28;;;;;;;26.15;14.98;;;;;;;;;;5051221;28;20079;-72
2022/01/17 13:56:55;;;;;;;27.65;14.95;;;;;;;;;;5052478;28;20067;-72
2022/01/17 13:59:23;;;;;;;25.75;15.80;;;;;;;;;;5052628;28;20028;-74
2022/01/17 14:01:50;;;;;;;28.00;15.82;;;;;;;;;;5051414;28;20116;-73
2022/01/17 14:04:30;;;;;;;25.90;15.13;;;;;;;;;;5046249;28;20408;-75
2022/01/17 14:06:57;;;;;;;25.42;14.98;;;;;;;;;;5031072;28;20048;-72
2022/01/17 14:09:34;;;;;;;29.58;14.98;;;;;;;;;;5036350;28;20091;-71
2022/01/17 14:12:01;;;;;;;27.52;15.40;;;;;;;;;;5051778;28;20041;-71
2022/01/17 14:14:28;;;;;;;29.30;15.85;;;;;;;;;;5051646;28;20025;-71
2022/01/17 14:16:55;;;;;;;25.98;15.20;;;;;;;;;;5050991;28;20024;-72
2022/01/17 14:19:22;;;;;;;26.48;16.33;;;;;;;;;;5051347;28;20021;-76
2022/01/17 14:22:07;;;;;;;31.75;17.67;;;;;;;;;;5051879;28;20117;-70
2022/01/17 14:24:41;;;;;;;27.00;15.40;;;;;;;;;;5047405;28;20506;-68
2022/01/17 14:27:18;;;;;;;25.25;14.48;;;;;;;;;;5031496;28;20033;-74
2022/01/17 14:29:48;;;;;;;23.52;13.70;;;;;;;;;;5013605;28;20084;-71
2022/01/17 14:32:16;;;;;;;26.70;16.08;;;;;;;;;;5032749;28;20362;-68
2022/01/17 14:34:44;;;;;;;26.45;14.55;;;;;;;;;;5033302;28;20056;-71
2022/01/17 14:37:14;;;;;;;27.77;15.95;;;;;;;;;;5032747;28;20033;-71
2022/01/17 14:39:41;;;;;;;29.08;15.77;;;;;;;;;;5032923;28;20095;-69
2022/01/17 14:42:14;;;;;;;27.25;15.90;;;;;;;;;;5033091;28;20439;-71
2022/01/17 14:44:44;;;;;;;31.35;16.63;;;;;;;;;;5032025;28;20084;-69
2022/01/17 14:47:13;;;;;;;26.58;16.08;;;;;;;;;;5032292;28;20037;-70
2022/01/17 14:49:42;;;;;;;24.60;15.23;;;;;;;;;;5031859;28;20029;-70
2022/01/17 14:52:20;;;;;;;26.55;15.32;;;;;;;;;;5032091;28;20034;-72
2022/01/17 14:55:01;;;;;;;26.35;15.13;;;;;;;;;;5032104;28;20046;-70
2022/01/17 15:03:03;;;;;;;36.75;22.30;;;;;;;;;;5031475;28;20034;-70
2022/01/17 15:05:31;;;;;;;31.63;18.50;;;;;;;;;;5030399;28;20114;-70